sensor_id;sensor_type;location;lat;lon;timestamp;P1;durP1;ratioP1;P2;durP2;ratioP2
27869;SDS011;15225;50.730;4.244;2023-05-10T19:31:25;18.33;;;10.30;;
27869;SDS011;15225;50.730;4.244;2023-05-10T19:33:51;28.65;;;9.98;;
27869;SDS011;15225;50.730;4.244;2023-05-10T19:36:18;23.73;;;10.10;;
27869;SDS011;15225;50.730;4.244;2023-05-10T19:38:44;25.95;;;9.30;;
27869;SDS011;15225;50.730;4.244;2023-05-10T19:41:10;15.65;;;9.27;;
27869;SDS011;15225;50.730;4.244;2023-05-10T19:43:36;21.15;;;10.55;;
27869;SDS011;15225;50.730;4.244;2023-05-10T19:46:03;16.63;;;10.50;;
27869;SDS011;15225;50.730;4.244;2023-05-10T19:48:29;20.27;;;10.30;;
27869;SDS011;15225;50.730;4.244;2023-05-10T19:51:00;22.00;;;10.15;;
27869;SDS011;15225;50.730;4.244;2023-05-10T19:53:27;22.48;;;10.52;;
27869;SDS011;15225;50.730;4.244;2023-05-10T19:55:53;20.48;;;10.20;;
27869;SDS011;15225;50.730;4.244;2023-05-10T19:58:19;18.67;;;10.43;;
27869;SDS011;15225;50.730;4.244;2023-05-10T20:00:46;22.63;;;10.45;;
27869;SDS011;15225;50.730;4.244;2023-05-10T20:03:11;17.55;;;10.40;;
27869;SDS011;15225;50.730;4.244;2023-05-10T20:05:37;23.73;;;11.07;;
27869;SDS011;15225;50.730;4.244;2023-05-10T20:08:03;14.32;;;9.05;;
27869;SDS011;15225;50.730;4.244;2023-05-10T20:10:29;21.73;;;10.02;;
27869;SDS011;15225;50.730;4.244;2023-05-10T20:12:55;17.77;;;9.32;;
27869;SDS011;15225;50.730;4.244;2023-05-10T20:15:22;15.77;;;9.65;;
27869;SDS011;15225;50.730;4.244;2023-05-10T20:17:49;16.85;;;9.63;;
27869;SDS011;15225;50.730;4.244;2023-05-10T20:20:17;16.38;;;10.98;;
27869;SDS011;15225;50.730;4.244;2023-05-10T20:22:44;19.33;;;10.48;;
27869;SDS011;15225;50.730;4.244;2023-05-10T20:25:10;16.08;;;10.90;;
27869;SDS011;15225;50.730;4.244;2023-05-10T20:27:36;22.15;;;10.13;;
27869;SDS011;15225;50.730;4.244;2023-05-10T20:30:03;19.10;;;10.55;;
27869;SDS011;15225;50.730;4.244;2023-05-10T20:32:29;22.10;;;11.60;;
27869;SDS011;15225;50.730;4.244;2023-05-10T20:34:55;24.52;;;11.80;;
27869;SDS011;15225;50.730;4.244;2023-05-10T20:37:21;20.25;;;11.15;;
27869;SDS011;15225;50.730;4.244;2023-05-10T20:39:47;19.92;;;12.02;;
27869;SDS011;15225;50.730;4.244;2023-05-10T20:42:13;27.50;;;13.70;;
27869;SDS011;15225;50.730;4.244;2023-05-10T20:44:39;18.30;;;13.05;;
27869;SDS011;15225;50.730;4.244;2023-05-10T20:47:05;21.42;;;13.07;;
27869;SDS011;15225;50.730;4.244;2023-05-10T20:49:31;22.48;;;13.15;;
27869;SDS011;15225;50.730;4.244;2023-05-10T20:51:58;26.23;;;13.35;;
27869;SDS011;15225;50.730;4.244;2023-05-10T20:54:24;18.05;;;10.93;;
27869;SDS011;15225;50.730;4.244;2023-05-10T20:56:50;18.45;;;11.07;;
27869;SDS011;15225;50.730;4.244;2023-05-10T20:59:16;17.65;;;11.35;;
27869;SDS011;15225;50.730;4.244;2023-05-10T21:01:43;21.88;;;12.05;;
27869;SDS011;15225;50.730;4.244;2023-05-10T21:04:09;23.20;;;13.18;;
27869;SDS011;15225;50.730;4.244;2023-05-10T21:06:35;23.65;;;12.85;;
27869;SDS011;15225;50.730;4.244;2023-05-10T21:09:02;24.67;;;14.50;;
27869;SDS011;15225;50.730;4.244;2023-05-10T21:11:28;24.42;;;15.18;;
27869;SDS011;15225;50.730;4.244;2023-05-10T21:13:55;29.30;;;16.65;;
27869;SDS011;15225;50.730;4.244;2023-05-10T21:16:21;27.00;;;15.73;;
27869;SDS011;15225;50.730;4.244;2023-05-10T21:18:47;34.03;;;17.10;;
27869;SDS011;15225;50.730;4.244;2023-05-10T21:21:12;34.75;;;17.95;;
27869;SDS011;15225;50.730;4.244;2023-05-10T21:23:38;35.60;;;18.88;;
27869;SDS011;15225;50.730;4.244;2023-05-10T21:26:04;28.73;;;17.48;;
27869;SDS011;15225;50.730;4.244;2023-05-10T21:28:30;35.92;;;18.00;;
27869;SDS011;15225;50.730;4.244;2023-05-10T21:30:56;37.55;;;20.02;;
27869;SDS011;15225;50.730;4.244;2023-05-10T21:33:22;49.83;;;21.08;;
27869;SDS011;15225;50.730;4.244;2023-05-10T21:35:48;39.08;;;20.95;;
27869;SDS011;15225;50.730;4.244;2023-05-10T21:38:14;42.05;;;22.50;;
27869;SDS011;15225;50.730;4.244;2023-05-10T21:40:40;41.72;;;23.00;;
27869;SDS011;15225;50.730;4.244;2023-05-10T21:43:06;44.67;;;23.90;;
